sensor_id;sensor_type;location;lat;lon;timestamp;pressure;altitude;pressure_sealevel;temperature;humidity
13705;BME280;6924;52.122;9.952;2023-02-16T00:00:51;101402.38;;;2.34;92.11
13705;BME280;6924;52.122;9.952;2023-02-16T00:03:20;101409.78;;;2.28;91.98
13705;BME280;6924;52.122;9.952;2023-02-16T00:05:48;101413.81;;;2.32;91.68
13705;BME280;6924;52.122;9.952;2023-02-16T00:08:14;101414.91;;;2.31;91.50
13705;BME280;6924;52.122;9.952;2023-02-16T00:10:42;101420.75;;;2.30;91.22
13705;BME280;6924;52.122;9.952;2023-02-16T00:13:30;101419.00;;;2.28;91.19
13705;BME280;6924;52.122;9.952;2023-02-16T00:16:18;101417.34;;;2.27;91.39
13705;BME280;6924;52.122;9.952;2023-02-16T00:18:45;101421.19;;;2.26;91.37
13705;BME280;6924;52.122;9.952;2023-02-16T00:21:13;101428.97;;;2.24;91.41
13705;BME280;6924;52.122;9.952;2023-02-16T00:23:39;101416.03;;;2.12;91.41
13705;BME280;6924;52.122;9.952;2023-02-16T00:26:13;101417.38;;;2.09;91.36
13705;BME280;6924;52.122;9.952;2023-02-16T00:28:41;101424.53;;;2.05;91.67
13705;BME280;6924;52.122;9.952;2023-02-16T00:31:14;101416.41;;;2.03;91.90
13705;BME280;6924;52.122;9.952;2023-02-16T00:33:41;101420.53;;;2.01;91.94
13705;BME280;6924;52.122;9.952;2023-02-16T00:36:07;101426.34;;;1.99;91.95
13705;BME280;6924;52.122;9.952;2023-02-16T00:38:34;101421.81;;;1.98;91.83
13705;BME280;6924;52.122;9.952;2023-02-16T00:41:00;101418.81;;;2.00;91.93
13705;BME280;6924;52.122;9.952;2023-02-16T00:43:29;101417.13;;;1.99;92.01
13705;BME280;6924;52.122;9.952;2023-02-16T00:45:56;101412.00;;;1.96;92.07
13705;BME280;6924;52.122;9.952;2023-02-16T00:48:22;101402.88;;;1.89;92.23
13705;BME280;6924;52.122;9.952;2023-02-16T00:50:49;101414.75;;;1.84;92.29
13705;BME280;6924;52.122;9.952;2023-02-16T00:53:15;101405.38;;;1.78;92.78
13705;BME280;6924;52.122;9.952;2023-02-16T00:55:42;101399.34;;;1.81;92.90
13705;BME280;6924;52.122;9.952;2023-02-16T00:58:15;101405.81;;;1.63;93.04
13705;BME280;6924;52.122;9.952;2023-02-16T01:00:50;101406.28;;;1.42;94.29
13705;BME280;6924;52.122;9.952;2023-02-16T01:03:20;101411.88;;;1.42;94.78
13705;BME280;6924;52.122;9.952;2023-02-16T01:05:48;101398.69;;;1.49;94.79
13705;BME280;6924;52.122;9.952;2023-02-16T01:08:34;101402.63;;;1.60;93.98
13705;BME280;6924;52.122;9.952;2023-02-16T01:11:18;101389.53;;;1.60;94.07
13705;BME280;6924;52.122;9.952;2023-02-16T01:13:46;101396.66;;;1.56;94.43
13705;BME280;6924;52.122;9.952;2023-02-16T01:16:16;101393.16;;;1.61;94.80
13705;BME280;6924;52.122;9.952;2023-02-16T01:18:43;101389.78;;;1.59;95.03
13705;BME280;6924;52.122;9.952;2023-02-16T01:21:10;101382.97;;;1.55;96.19
13705;BME280;6924;52.122;9.952;2023-02-16T01:23:37;101386.22;;;1.52;96.25
13705;BME280;6924;52.122;9.952;2023-02-16T01:26:04;101367.88;;;1.44;96.53
13705;BME280;6924;52.122;9.952;2023-02-16T01:28:33;101368.03;;;1.49;97.10
13705;BME280;6924;52.122;9.952;2023-02-16T01:31:00;101364.00;;;1.45;97.20
13705;BME280;6924;52.122;9.952;2023-02-16T01:33:27;101369.81;;;1.43;97.09
13705;BME280;6924;52.122;9.952;2023-02-16T01:35:54;101371.59;;;1.38;97.67
13705;BME280;6924;52.122;9.952;2023-02-16T01:38:24;101362.53;;;1.42;98.06
13705;BME280;6924;52.122;9.952;2023-02-16T01:40:58;101371.38;;;1.39;98.49
13705;BME280;6924;52.122;9.952;2023-02-16T01:43:40;101368.19;;;1.36;99.45
13705;BME280;6924;52.122;9.952;2023-02-16T01:46:11;101363.94;;;1.33;99.60
13705;BME280;6924;52.122;9.952;2023-02-16T01:48:40;101365.97;;;1.26;100.00
13705;BME280;6924;52.122;9.952;2023-02-16T01:51:15;101368.38;;;1.22;100.00
13705;BME280;6924;52.122;9.952;2023-02-16T01:53:47;101367.81;;;1.32;100.00
13705;BME280;6924;52.122;9.952;2023-02-16T01:56:23;101369.22;;;1.41;100.00
13705;BME280;6924;52.122;9.952;2023-02-16T01:58:58;101366.66;;;1.40;100.00
13705;BME280;6924;52.122;9.952;2023-02-16T02:01:42;101366.66;;;1.40;100.00
13705;BME280;6924;52.122;9.952;2023-02-16T02:04:19;101361.47;;;1.43;100.00
13705;BME280;6924;52.122;9.952;2023-02-16T02:07:05;101369.56;;;1.45;100.00
13705;BME280;6924;52.122;9.952;2023-02-16T02:09:36;101365.94;;;1.44;99.75
13705;BME280;6924;52.122;9.952;2023-02-16T02:12:09;101362.53;;;1.42;100.00
13705;BME280;6924;52.122;9.952;2023-02-16T02:14:39;101351.47;;;1.36;99.94
13705;BME280;6924;52.122;9.952;2023-02-16T02:17:09;101342.81;;;1.26;100.00
13705;BME280;6924;52.122;9.952;2023-02-16T02:19:48;101347.53;;;1.25;100.00
13705;BME280;6924;52.122;9.952;2023-02-16T02:22:38;101351.34;;;1.31;100.00
13705;BME280;6924;52.122;9.952;2023-02-16T02:28:57;101335.97;;;1.40;100.00
13705;BME280;6924;52.122;9.952;2023-02-16T02:31:38;101335.38;;;1.38;100.00
13705;BME280;6924;52.122;9.952;2023-02-16T02:34:16;101339.00;;;1.38;100.00
13705;BME280;6924;52.122;9.952;2023-02-16T02:36:50;101329.56;;;1.39;100.00
13705;BME280;6924;52.122;9.952;2023-02-16T02:39:32;101325.75;;;1.34;100.00
13705;BME280;6924;52.122;9.952;2023-02-16T02:42:03;101327.47;;;1.35;100.00
13705;BME280;6924;52.122;9.952;2023-02-16T02:44:36;101325.31;;;1.37;100.00
13705;BME280;6924;52.122;9.952;2023-02-16T02:47:04;101321.44;;;1.38;100.00
13705;BME280;6924;52.122;9.952;2023-02-16T02:49:31;101323.91;;;1.28;100.00
13705;BME280;6924;52.122;9.952;2023-02-16T02:51:57;101322.72;;;1.23;100.00
13705;BME280;6924;52.122;9.952;2023-02-16T02:54:27;101325.50;;;1.23;100.00
13705;BME280;6924;52.122;9.952;2023-02-16T02:57:15;101323.28;;;1.26;100.00
13705;BME280;6924;52.122;9.952;2023-02-16T03:00:05;101323.81;;;1.34;100.00
13705;BME280;6924;52.122;9.952;2023-02-16T03:02:52;101320.94;;;1.41;100.00
13705;BME280;6924;52.122;9.952;2023-02-16T03:05:21;101320.94;;;1.41;100.00
13705;BME280;6924;52.122;9.952;2023-02-16T03:07:51;101320.81;;;1.36;100.00
13705;BME280;6924;52.122;9.952;2023-02-16T03:10:23;101321.75;;;1.30;100.00
13705;BME280;6924;52.122;9.952;2023-02-16T03:13:11;101312.94;;;1.33;100.00
13705;BME280;6924;52.122;9.952;2023-02-16T03:15:39;101317.50;;;1.27;100.00
13705;BME280;6924;52.122;9.952;2023-02-16T03:18:08;101313.28;;;1.06;100.00
13705;BME280;6924;52.122;9.952;2023-02-16T03:20:54;101315.03;;;1.19;100.00
13705;BME280;6924;52.122;9.952;2023-02-16T03:23:40;101314.19;;;1.18;100.00
13705;BME280;6924;52.122;9.952;2023-02-16T03:26:25;101326.34;;;1.24;100.00
13705;BME280;6924;52.122;9.952;2023-02-16T03:29:11;101330.59;;;1.27;100.00
13705;BME280;6924;52.122;9.952;2023-02-16T03:31:54;101329.25;;;1.29;100.00
13705;BME280;6924;52.122;9.952;2023-02-16T03:34:22;101326.59;;;1.34;100.00
13705;BME280;6924;52.122;9.952;2023-02-16T03:36:51;101335.13;;;1.39;100.00
13705;BME280;6924;52.122;9.952;2023-02-16T03:39:23;101336.69;;;1.35;100.00
13705;BME280;6924;52.122;9.952;2023-02-16T03:41:51;101334.75;;;1.36;100.00
13705;BME280;6924;52.122;9.952;2023-02-16T03:44:18;101335.22;;;1.33;100.00
13705;BME280;6924;52.122;9.952;2023-02-16T03:46:45;101333.34;;;1.45;100.00
13705;BME280;6924;52.122;9.952;2023-02-16T03:49:15;101331.03;;;1.42;100.00
13705;BME280;6924;52.122;9.952;2023-02-16T03:51:42;101331.66;;;1.44;100.00
13705;BME280;6924;52.122;9.952;2023-02-16T03:54:08;101331.34;;;1.34;100.00
13705;BME280;6924;52.122;9.952;2023-02-16T03:56:34;101331.19;;;1.29;100.00
13705;BME280;6924;52.122;9.952;2023-02-16T03:59:01;101321.59;;;1.24;100.00
13705;BME280;6924;52.122;9.952;2023-02-16T04:01:27;101322.31;;;1.20;100.00
13705;BME280;6924;52.122;9.952;2023-02-16T04:03:54;101322.00;;;1.28;100.00
13705;BME280;6924;52.122;9.952;2023-02-16T04:06:22;101316.81;;;1.13;100.00
13705;BME280;6924;52.122;9.952;2023-02-16T04:08:48;101319.28;;;1.03;100.00
13705;BME280;6924;52.122;9.952;2023-02-16T04:11:15;101320.75;;;1.06;100.00
13705;BME280;6924;52.122;9.952;2023-02-16T04:13:59;101323.53;;;1.06;100.00
13705;BME280;6924;52.122;9.952;2023-02-16T04:16:25;101329.81;;;1.01;100.00
13705;BME280;6924;52.122;9.952;2023-02-16T04:18:52;101324.25;;;1.01;100.00
13705;BME280;6924;52.122;9.952;2023-02-16T04:21:18;101319.28;;;1.03;100.00
13705;BME280;6924;52.122;9.952;2023-02-16T04:23:46;101330.91;;;1.00;100.00
13705;BME280;6924;52.122;9.952;2023-02-16T04:26:12;101328.91;;;1.07;100.00
13705;BME280;6924;52.122;9.952;2023-02-16T04:28:38;101333.69;;;1.18;100.00
13705;BME280;6924;52.122;9.952;2023-02-16T04:31:05;101337.72;;;1.22;100.00
13705;BME280;6924;52.122;9.952;2023-02-16T04:33:31;101333.16;;;1.28;100.00
13705;BME280;6924;52.122;9.952;2023-02-16T04:35:58;101334.06;;;1.22;100.00
13705;BME280;6924;52.122;9.952;2023-02-16T04:38:24;101329.91;;;1.13;100.00
13705;BME280;6924;52.122;9.952;2023-02-16T04:40:52;101322.53;;;1.18;100.00
13705;BME280;6924;52.122;9.952;2023-02-16T04:43:18;101332.00;;;1.17;100.00
13705;BME280;6924;52.122;9.952;2023-02-16T04:45:45;101328.44;;;0.92;100.00
13705;BME280;6924;52.122;9.952;2023-02-16T04:48:11;101331.16;;;0.80;100.00
13705;BME280;6924;52.122;9.952;2023-02-16T04:50:38;101323.66;;;0.80;100.00
13705;BME280;6924;52.122;9.952;2023-02-16T04:53:05;101315.38;;;0.74;100.00
13705;BME280;6924;52.122;9.952;2023-02-16T04:55:32;101320.16;;;0.67;100.00
13705;BME280;6924;52.122;9.952;2023-02-16T04:58:00;101322.31;;;0.65;100.00
13705;BME280;6924;52.122;9.952;2023-02-16T05:00:26;101309.88;;;0.67;100.00
13705;BME280;6924;52.122;9.952;2023-02-16T05:02:52;101308.94;;;0.73;100.00
13705;BME280;6924;52.122;9.952;2023-02-16T05:05:19;101302.97;;;0.70;100.00
13705;BME280;6924;52.122;9.952;2023-02-16T05:07:45;101305.53;;;0.71;100.00
13705;BME280;6924;52.122;9.952;2023-02-16T05:10:12;101309.03;;;0.67;100.00
13705;BME280;6924;52.122;9.952;2023-02-16T05:12:38;101304.44;;;0.72;100.00
13705;BME280;6924;52.122;9.952;2023-02-16T05:15:23;101306.16;;;0.73;100.00
13705;BME280;6924;52.122;9.952;2023-02-16T05:17:50;101299.81;;;0.85;100.00
13705;BME280;6924;52.122;9.952;2023-02-16T05:20:16;101305.84;;;0.81;100.00
13705;BME280;6924;52.122;9.952;2023-02-16T05:22:42;101310.81;;;0.79;100.00
13705;BME280;6924;52.122;9.952;2023-02-16T05:25:10;101306.63;;;0.89;100.00
13705;BME280;6924;52.122;9.952;2023-02-16T05:27:37;101299.50;;;0.93;100.00
13705;BME280;6924;52.122;9.952;2023-02-16T05:30:04;101289.59;;;0.78;100.00
13705;BME280;6924;52.122;9.952;2023-02-16T05:32:32;101284.03;;;0.60;100.00
13705;BME280;6924;52.122;9.952;2023-02-16T05:34:58;101286.66;;;0.55;100.00
13705;BME280;6924;52.122;9.952;2023-02-16T05:37:25;101288.22;;;0.51;100.00
13705;BME280;6924;52.122;9.952;2023-02-16T05:39:51;101282.69;;;0.44;100.00
13705;BME280;6924;52.122;9.952;2023-02-16T05:42:18;101282.69;;;0.44;100.00
13705;BME280;6924;52.122;9.952;2023-02-16T05:44:44;101286.78;;;0.41;100.00
13705;BME280;6924;52.122;9.952;2023-02-16T05:47:10;101294.06;;;0.43;100.00
13705;BME280;6924;52.122;9.952;2023-02-16T05:49:38;101301.09;;;0.45;100.00
13705;BME280;6924;52.122;9.952;2023-02-16T05:52:04;101301.56;;;0.42;100.00
13705;BME280;6924;52.122;9.952;2023-02-16T05:54:31;101307.53;;;0.46;100.00
13705;BME280;6924;52.122;9.952;2023-02-16T05:56:57;101307.00;;;0.55;100.00
13705;BME280;6924;52.122;9.952;2023-02-16T05:59:24;101311.06;;;0.53;100.00
13705;BME280;6924;52.122;9.952;2023-02-16T06:01:50;101313.56;;;0.61;100.00
13705;BME280;6924;52.122;9.952;2023-02-16T06:04:17;101318.06;;;0.62;100.00
13705;BME280;6924;52.122;9.952;2023-02-16T06:06:45;101307.09;;;0.67;100.00
13705;BME280;6924;52.122;9.952;2023-02-16T06:09:11;101306.31;;;0.60;100.00
13705;BME280;6924;52.122;9.952;2023-02-16T06:11:38;101303.75;;;0.58;100.00
13705;BME280;6924;52.122;9.952;2023-02-16T06:14:07;101304.38;;;0.60;100.00
13705;BME280;6924;52.122;9.952;2023-02-16T06:16:36;101303.06;;;0.63;100.00
13705;BME280;6924;52.122;9.952;2023-02-16T06:19:03;101294.41;;;0.71;100.00
13705;BME280;6924;52.122;9.952;2023-02-16T06:21:30;101299.56;;;0.68;100.00
13705;BME280;6924;52.122;9.952;2023-02-16T06:23:58;101299.34;;;0.69;100.00
13705;BME280;6924;52.122;9.952;2023-02-16T06:26:25;101297.19;;;0.71;100.00
13705;BME280;6924;52.122;9.952;2023-02-16T06:28:52;101292.88;;;0.75;100.00
13705;BME280;6924;52.122;9.952;2023-02-16T06:31:19;101301.59;;;0.79;100.00
13705;BME280;6924;52.122;9.952;2023-02-16T06:33:46;101306.00;;;0.87;100.00
13705;BME280;6924;52.122;9.952;2023-02-16T06:36:13;101307.69;;;0.88;100.00
13705;BME280;6924;52.122;9.952;2023-02-16T06:38:39;101293.31;;;0.91;100.00
13705;BME280;6924;52.122;9.952;2023-02-16T06:41:07;101294.16;;;0.91;100.00
13705;BME280;6924;52.122;9.952;2023-02-16T06:43:34;101292.22;;;0.92;100.00
13705;BME280;6924;52.122;9.952;2023-02-16T06:46:00;101291.59;;;0.90;100.00
13705;BME280;6924;52.122;9.952;2023-02-16T06:48:27;101290.53;;;0.91;100.00
13705;BME280;6924;52.122;9.952;2023-02-16T06:50:54;101295.41;;;0.95;100.00
13705;BME280;6924;52.122;9.952;2023-02-16T06:53:20;101283.34;;;1.01;100.00
13705;BME280;6924;52.122;9.952;2023-02-16T06:55:49;101291.06;;;0.99;100.00
13705;BME280;6924;52.122;9.952;2023-02-16T06:58:17;101298.72;;;1.04;100.00
13705;BME280;6924;52.122;9.952;2023-02-16T07:00:43;101294.00;;;1.05;100.00
13705;BME280;6924;52.122;9.952;2023-02-16T07:03:10;101307.72;;;1.06;100.00
13705;BME280;6924;52.122;9.952;2023-02-16T07:05:36;101309.44;;;1.19;100.00
13705;BME280;6924;52.122;9.952;2023-02-16T07:08:03;101317.34;;;1.22;100.00
13705;BME280;6924;52.122;9.952;2023-02-16T07:10:29;101309.53;;;1.31;100.00
13705;BME280;6924;52.122;9.952;2023-02-16T07:12:56;101304.56;;;1.33;100.00
13705;BME280;6924;52.122;9.952;2023-02-16T07:15:24;101304.47;;;1.39;100.00
13705;BME280;6924;52.122;9.952;2023-02-16T07:17:50;101314.91;;;1.44;100.00
13705;BME280;6924;52.122;9.952;2023-02-16T07:20:17;101308.00;;;1.47;100.00
13705;BME280;6924;52.122;9.952;2023-02-16T07:22:43;101319.56;;;1.50;100.00
13705;BME280;6924;52.122;9.952;2023-02-16T07:25:09;101311.94;;;1.57;100.00
13705;BME280;6924;52.122;9.952;2023-02-16T07:27:36;101316.91;;;1.55;100.00
13705;BME280;6924;52.122;9.952;2023-02-16T07:30:02;101320.91;;;1.59;100.00
13705;BME280;6924;52.122;9.952;2023-02-16T07:32:30;101319.81;;;1.60;100.00
13705;BME280;6924;52.122;9.952;2023-02-16T07:34:57;101320.22;;;1.64;100.00
13705;BME280;6924;52.122;9.952;2023-02-16T07:37:23;101333.75;;;1.60;100.00
13705;BME280;6924;52.122;9.952;2023-02-16T07:39:49;101332.69;;;1.61;100.00
13705;BME280;6924;52.122;9.952;2023-02-16T07:42:17;101341.19;;;1.67;100.00
13705;BME280;6924;52.122;9.952;2023-02-16T07:44:43;101335.22;;;1.63;100.00
13705;BME280;6924;52.122;9.952;2023-02-16T07:47:10;101337.78;;;1.64;100.00
13705;BME280;6924;52.122;9.952;2023-02-16T07:49:38;101334.88;;;1.71;100.00
13705;BME280;6924;52.122;9.952;2023-02-16T07:52:05;101332.72;;;1.73;100.00
13705;BME280;6924;52.122;9.952;2023-02-16T07:54:32;101327.97;;;1.74;100.00
13705;BME280;6924;52.122;9.952;2023-02-16T07:56:58;101328.97;;;1.79;100.00
13705;BME280;6924;52.122;9.952;2023-02-16T07:59:25;101332.91;;;1.90;100.00
13705;BME280;6924;52.122;9.952;2023-02-16T08:01:51;101332.44;;;2.05;100.00
13705;BME280;6924;52.122;9.952;2023-02-16T08:04:17;101328.44;;;2.13;100.00
13705;BME280;6924;52.122;9.952;2023-02-16T08:06:45;101322.88;;;2.24;100.00
13705;BME280;6924;52.122;9.952;2023-02-16T08:09:12;101332.47;;;2.28;100.00
13705;BME280;6924;52.122;9.952;2023-02-16T08:11:39;101323.75;;;2.37;100.00
13705;BME280;6924;52.122;9.952;2023-02-16T08:14:06;101315.63;;;2.47;100.00
13705;BME280;6924;52.122;9.952;2023-02-16T08:16:32;101317.69;;;2.63;100.00
13705;BME280;6924;52.122;9.952;2023-02-16T08:19:00;101325.09;;;2.69;99.87
13705;BME280;6924;52.122;9.952;2023-02-16T08:21:30;101320.72;;;2.74;98.78
13705;BME280;6924;52.122;9.952;2023-02-16T08:23:59;101326.31;;;2.74;97.20
13705;BME280;6924;52.122;9.952;2023-02-16T08:26:27;101324.22;;;2.81;97.88
13705;BME280;6924;52.122;9.952;2023-02-16T08:28:56;101331.16;;;2.78;97.93
13705;BME280;6924;52.122;9.952;2023-02-16T08:31:24;101342.34;;;2.78;96.56
13705;BME280;6924;52.122;9.952;2023-02-16T08:33:53;101333.81;;;2.85;97.36
13705;BME280;6924;52.122;9.952;2023-02-16T08:36:20;101331.75;;;2.92;96.87
13705;BME280;6924;52.122;9.952;2023-02-16T08:38:59;101322.63;;;2.97;97.10
13705;BME280;6924;52.122;9.952;2023-02-16T08:41:28;101323.97;;;2.94;95.96
13705;BME280;6924;52.122;9.952;2023-02-16T08:43:55;101335.97;;;2.95;96.35
13705;BME280;6924;52.122;9.952;2023-02-16T08:46:22;101329.69;;;2.87;95.93
13705;BME280;6924;52.122;9.952;2023-02-16T08:48:49;101342.06;;;2.80;95.98
13705;BME280;6924;52.122;9.952;2023-02-16T08:51:17;101334.09;;;2.72;96.66
13705;BME280;6924;52.122;9.952;2023-02-16T08:53:44;101337.09;;;2.70;96.71
13705;BME280;6924;52.122;9.952;2023-02-16T08:56:13;101336.13;;;2.64;96.60
13705;BME280;6924;52.122;9.952;2023-02-16T08:58:41;101343.31;;;2.60;97.36
13705;BME280;6924;52.122;9.952;2023-02-16T09:01:08;101340.03;;;2.63;97.52
13705;BME280;6924;52.122;9.952;2023-02-16T09:03:36;101331.53;;;2.70;97.37
13705;BME280;6924;52.122;9.952;2023-02-16T09:06:05;101336.34;;;2.86;98.23
13705;BME280;6924;52.122;9.952;2023-02-16T09:08:32;101329.66;;;2.99;98.25
13705;BME280;6924;52.122;9.952;2023-02-16T09:11:01;101327.47;;;3.13;97.26
13705;BME280;6924;52.122;9.952;2023-02-16T09:13:29;101320.13;;;3.24;96.11
13705;BME280;6924;52.122;9.952;2023-02-16T09:16:00;101318.97;;;3.37;95.63
13705;BME280;6924;52.122;9.952;2023-02-16T09:18:27;101303.50;;;3.46;94.72
13705;BME280;6924;52.122;9.952;2023-02-16T09:20:53;101305.50;;;3.62;95.32
13705;BME280;6924;52.122;9.952;2023-02-16T09:23:21;101300.03;;;3.84;94.42
13705;BME280;6924;52.122;9.952;2023-02-16T09:25:48;101304.81;;;4.01;92.24
13705;BME280;6924;52.122;9.952;2023-02-16T09:28:14;101303.19;;;4.05;90.42
13705;BME280;6924;52.122;9.952;2023-02-16T09:30:42;101310.34;;;4.12;91.99
13705;BME280;6924;52.122;9.952;2023-02-16T09:33:08;101309.13;;;4.25;91.07
13705;BME280;6924;52.122;9.952;2023-02-16T09:35:37;101315.50;;;4.38;90.60
13705;BME280;6924;52.122;9.952;2023-02-16T09:38:03;101316.28;;;4.50;90.63
13705;BME280;6924;52.122;9.952;2023-02-16T09:40:32;101326.44;;;4.56;90.43
13705;BME280;6924;52.122;9.952;2023-02-16T09:43:03;101321.78;;;4.62;88.60
13705;BME280;6924;52.122;9.952;2023-02-16T09:45:38;101309.19;;;4.64;89.66
13705;BME280;6924;52.122;9.952;2023-02-16T09:48:18;101313.44;;;4.67;88.75
13705;BME280;6924;52.122;9.952;2023-02-16T09:50:47;101325.16;;;4.64;88.80
13705;BME280;6924;52.122;9.952;2023-02-16T09:53:20;101318.03;;;4.73;87.85
13705;BME280;6924;52.122;9.952;2023-02-16T09:55:53;101313.41;;;4.84;88.64
13705;BME280;6924;52.122;9.952;2023-02-16T09:58:26;101313.66;;;4.82;88.75
13705;BME280;6924;52.122;9.952;2023-02-16T10:01:01;101311.78;;;4.88;88.44
13705;BME280;6924;52.122;9.952;2023-02-16T10:03:51;101311.31;;;4.96;88.54
13705;BME280;6924;52.122;9.952;2023-02-16T10:06:28;101307.00;;;5.05;87.76
13705;BME280;6924;52.122;9.952;2023-02-16T10:09:02;101311.28;;;5.13;88.07
13705;BME280;6924;52.122;9.952;2023-02-16T10:11:35;101304.78;;;5.29;87.57
13705;BME280;6924;52.122;9.952;2023-02-16T10:14:11;101308.84;;;5.44;88.19
13705;BME280;6924;52.122;9.952;2023-02-16T10:16:44;101305.84;;;5.50;86.85
13705;BME280;6924;52.122;9.952;2023-02-16T10:19:20;101330.06;;;5.56;85.88
13705;BME280;6924;52.122;9.952;2023-02-16T10:21:50;101319.72;;;5.62;85.44
13705;BME280;6924;52.122;9.952;2023-02-16T10:24:18;101315.41;;;5.76;85.06
13705;BME280;6924;52.122;9.952;2023-02-16T10:26:47;101316.38;;;5.87;84.51
13705;BME280;6924;52.122;9.952;2023-02-16T10:29:18;101326.06;;;6.02;83.88
13705;BME280;6924;52.122;9.952;2023-02-16T10:31:52;101322.69;;;5.99;82.72
13705;BME280;6924;52.122;9.952;2023-02-16T10:34:34;101327.53;;;6.04;83.63
13705;BME280;6924;52.122;9.952;2023-02-16T10:37:20;101319.09;;;6.04;82.81
13705;BME280;6924;52.122;9.952;2023-02-16T10:39:53;101314.31;;;6.05;83.01
13705;BME280;6924;52.122;9.952;2023-02-16T10:42:30;101322.97;;;5.98;82.47
13705;BME280;6924;52.122;9.952;2023-02-16T10:45:05;101324.97;;;6.03;82.63
13705;BME280;6924;52.122;9.952;2023-02-16T10:47:41;101314.53;;;5.98;81.83
13705;BME280;6924;52.122;9.952;2023-02-16T10:50:19;101314.53;;;5.98;83.08
13705;BME280;6924;52.122;9.952;2023-02-16T10:52:47;101306.81;;;5.88;82.34
13705;BME280;6924;52.122;9.952;2023-02-16T10:55:14;101309.03;;;5.86;82.61
13705;BME280;6924;52.122;9.952;2023-02-16T10:57:41;101301.00;;;5.95;83.53
13705;BME280;6924;52.122;9.952;2023-02-16T11:00:12;101298.22;;;5.95;83.05
13705;BME280;6924;52.122;9.952;2023-02-16T11:02:44;101289.97;;;5.88;83.01
13705;BME280;6924;52.122;9.952;2023-02-16T11:08:06;101301.50;;;6.19;82.42
13705;BME280;6924;52.122;9.952;2023-02-16T11:10:39;101293.09;;;6.19;81.41
13705;BME280;6924;52.122;9.952;2023-02-16T11:13:06;101292.94;;;6.31;81.25
13705;BME280;6924;52.122;9.952;2023-02-16T11:15:34;101290.13;;;6.31;81.19
13705;BME280;6924;52.122;9.952;2023-02-16T11:18:05;101278.88;;;6.31;80.87
13705;BME280;6924;52.122;9.952;2023-02-16T11:20:34;101297.16;;;6.33;80.35
13705;BME280;6924;52.122;9.952;2023-02-16T11:23:22;101300.34;;;6.47;80.48
13705;BME280;6924;52.122;9.952;2023-02-16T11:25:57;101295.22;;;6.39;80.37
13705;BME280;6924;52.122;9.952;2023-02-16T11:28:25;101294.97;;;6.46;79.99
13705;BME280;6924;52.122;9.952;2023-02-16T11:30:58;101285.84;;;6.28;80.35
13705;BME280;6924;52.122;9.952;2023-02-16T11:33:26;101293.72;;;6.26;81.41
13705;BME280;6924;52.122;9.952;2023-02-16T11:35:54;101286.72;;;6.29;81.42
13705;BME280;6924;52.122;9.952;2023-02-16T11:38:32;101281.22;;;6.44;81.01
13705;BME280;6924;52.122;9.952;2023-02-16T11:41:01;101274.97;;;6.37;80.95
13705;BME280;6924;52.122;9.952;2023-02-16T11:43:30;101277.88;;;6.47;80.47
13705;BME280;6924;52.122;9.952;2023-02-16T11:46:00;101274.84;;;6.59;80.23
13705;BME280;6924;52.122;9.952;2023-02-16T11:48:29;101271.56;;;6.72;79.63
13705;BME280;6924;52.122;9.952;2023-02-16T11:50:59;101276.69;;;6.86;79.22
13705;BME280;6924;52.122;9.952;2023-02-16T11:53:29;101267.22;;;6.97;78.55
13705;BME280;6924;52.122;9.952;2023-02-16T11:56:19;101270.09;;;7.12;78.53
13705;BME280;6924;52.122;9.952;2023-02-16T11:59:02;101267.88;;;7.24;78.30
13705;BME280;6924;52.122;9.952;2023-02-16T12:01:39;101267.09;;;7.44;77.59
13705;BME280;6924;52.122;9.952;2023-02-16T12:04:19;101271.63;;;7.45;76.41
13705;BME280;6924;52.122;9.952;2023-02-16T12:06:58;101263.13;;;7.40;75.02
13705;BME280;6924;52.122;9.952;2023-02-16T12:09:37;101265.94;;;7.35;73.92
13705;BME280;6924;52.122;9.952;2023-02-16T12:12:12;101260.38;;;7.45;75.04
13705;BME280;6924;52.122;9.952;2023-02-16T12:14:49;101259.75;;;7.33;76.40
13705;BME280;6924;52.122;9.952;2023-02-16T12:17:29;101257.50;;;7.40;75.23
13705;BME280;6924;52.122;9.952;2023-02-16T12:20:04;101256.69;;;7.45;76.19
13705;BME280;6924;52.122;9.952;2023-02-16T12:22:40;101260.63;;;7.39;75.13
13705;BME280;6924;52.122;9.952;2023-02-16T12:25:23;101254.69;;;7.30;74.71
13705;BME280;6924;52.122;9.952;2023-02-16T12:27:55;101254.16;;;7.43;74.96
13705;BME280;6924;52.122;9.952;2023-02-16T12:30:35;101242.91;;;7.43;75.42
13705;BME280;6924;52.122;9.952;2023-02-16T12:33:14;101251.31;;;7.38;75.86
13705;BME280;6924;52.122;9.952;2023-02-16T12:36:01;101250.78;;;7.41;74.46
13705;BME280;6924;52.122;9.952;2023-02-16T12:38:40;101245.72;;;7.43;75.51
13705;BME280;6924;52.122;9.952;2023-02-16T12:41:22;101244.03;;;7.48;75.30
13705;BME280;6924;52.122;9.952;2023-02-16T12:43:57;101243.22;;;7.57;74.94
13705;BME280;6924;52.122;9.952;2023-02-16T12:46:28;101245.47;;;7.65;75.84
13705;BME280;6924;52.122;9.952;2023-02-16T12:48:59;101236.22;;;7.91;72.55
13705;BME280;6924;52.122;9.952;2023-02-16T12:51:32;101239.03;;;7.96;73.32
13705;BME280;6924;52.122;9.952;2023-02-16T12:54:03;101237.63;;;8.03;73.52
13705;BME280;6924;52.122;9.952;2023-02-16T12:56:38;101237.34;;;8.15;71.47
13705;BME280;6924;52.122;9.952;2023-02-16T12:59:15;101233.41;;;8.16;71.43
13705;BME280;6924;52.122;9.952;2023-02-16T13:01:44;101233.69;;;8.10;71.25
13705;BME280;6924;52.122;9.952;2023-02-16T13:04:17;101233.09;;;8.28;72.83
13705;BME280;6924;52.122;9.952;2023-02-16T13:06:49;101228.00;;;8.35;71.94
13705;BME280;6924;52.122;9.952;2023-02-16T13:09:26;101219.00;;;8.48;71.43
13705;BME280;6924;52.122;9.952;2023-02-16T13:12:01;101213.63;;;8.57;69.89
13705;BME280;6924;52.122;9.952;2023-02-16T13:14:33;101221.78;;;8.64;70.87
13705;BME280;6924;52.122;9.952;2023-02-16T13:17:03;101221.28;;;8.52;71.43
13705;BME280;6924;52.122;9.952;2023-02-16T13:19:34;101213.97;;;8.40;72.57
13705;BME280;6924;52.122;9.952;2023-02-16T13:22:20;101209.44;;;8.50;71.51
13705;BME280;6924;52.122;9.952;2023-02-16T13:25:02;101205.22;;;8.47;71.23
13705;BME280;6924;52.122;9.952;2023-02-16T13:27:41;101208.03;;;8.42;72.47
13705;BME280;6924;52.122;9.952;2023-02-16T13:30:45;101195.91;;;8.26;72.23